• Join FlightAware (Why Join?)
  • Login
  • US Flag 
01:21PM EDT


 

Airport Tracker/Info


-or-


 

Live Flight TrackerFlight Track Log ✈ ASQ6151 ✈ 03-May-2013 ✈ KSAV - KORD

Flight Track Log - Related Links

Times and Time Zones

All times are in EDT time to prevent confusion due to time zone crossing. See the ASQ6151 flight status page for this flight to view local times or setup timezone preferences in your user account.

Time Position Orientation Groundspeed Altitude Reporting Facility
EDT Latitude Longitude Course Direction KTS MPH feet Rate Location/Type
10:03PM 32.2050 -81.1836 North 255 293 6,500  Level Jacksonville Center
10:04PM 32.2678 -81.1925 353° North 228 262 9,200 2,280 Climbing Jacksonville Center
10:05PM 32.3308 -81.2108 346° North 233 268 11,100 1,560 Climbing Jacksonville Center
10:06PM 32.4189 -81.2536 338° Northwest 285 328 12,400 1,140 Climbing Jacksonville Center
10:07PM 32.6890 -81.1500 North  Level FlightAware Approximate
10:07PM 32.5092 -81.2939 339° North 336 387 13,400  Level Jacksonville Center
10:08PM 32.7851 -81.1394 North  Level FlightAware Approximate
10:08PM 32.5953 -81.3317 340° North 355 409 14,700  Level Jacksonville Center
10:09PM 32.8812 -81.1274 North  Level FlightAware Approximate
10:09PM 32.6939 -81.3744 340° North 360 414 16,200  Level Jacksonville Center
10:10PM 32.7864 -81.4197 338° Northwest 365 420 17,600 1,260 Climbing Jacksonville Center
10:11PM 32.8850 -81.4628 340° North 365 420 18,800 1,140 Climbing Jacksonville Center
10:12PM 32.9878 -81.5083 340° North 378 435 19,900 1,020 Climbing Jacksonville Center
10:13PM 33.0989 -81.5611 338° Northwest 378 435 20,900 960 Climbing Jacksonville Center
10:14PM 33.2039 -81.6117 338° Northwest 393 452 21,900 960 Climbing Jacksonville Center
10:16PM 33.3919 -81.6950 340° North 409 471 23,600 960 Climbing Atlanta Center
10:17PM 33.4994 -81.7469 338° Northwest 420 483 24,600 1,080 Climbing Atlanta Center
10:18PM 33.6131 -81.7989 339° North 420 483 25,800 1,200 Climbing Atlanta Center
10:19PM 33.7247 -81.8508 339° North 420 483 27,000 1,200 Climbing Atlanta Center
10:20PM 33.8236 -81.8958 339° North 428 493 28,300 1,200 Climbing Atlanta Center
10:21PM 33.9350 -81.9456 340° North 428 493 29,500 1,200 Climbing Atlanta Center
10:22PM 34.0444 -82.0006 337° Northwest 422 486 30,800 1,200 Climbing Atlanta Center
10:23PM 34.1558 -82.0506 340° North 422 486 32,000 1,200 Climbing Atlanta Center
10:24PM 34.2675 -82.1058 338° Northwest 422 486 33,300 1,200 Climbing Atlanta Center
10:25PM 34.3789 -82.1586 339° North 422 486 34,500 1,200 Climbing Atlanta Center
10:26PM 34.4925 -82.2142 338° Northwest 428 493 35,700 720 Climbing Atlanta Center
10:27PM 34.6058 -82.2672 339° North 433 498 36,000 120 Climbing Atlanta Center
10:28PM 34.7278 -82.3278 338° Northwest 448 516 36,000  Level Atlanta Center
10:29PM 34.8539 -82.3886 338° Northwest 468 539 36,000  Level Atlanta Center
10:30PM 34.9736 -82.4444 339° North 468 539 36,000  Level Atlanta Center
10:31PM 35.1078 -82.5078 339° North 475 547 36,000  Level Atlanta Center
10:32PM 35.2211 -82.5667 337° Northwest 480 552 36,000  Level Atlanta Center
10:33PM 35.3514 -82.6281 339° North 473 544 36,000  Level Atlanta Center
10:34PM 35.4731 -82.6897 338° Northwest 468 539 36,000  Level Atlanta Center
10:35PM 35.5989 -82.7489 339° North 475 547 36,000  Level Atlanta Center
10:36PM 35.7225 -82.8108 338° Northwest 475 547 36,000  Level Atlanta Center
10:37PM 35.8461 -82.8706 339° North 475 547 36,000  Level Atlanta Center
10:38PM 35.9697 -82.9331 338° Northwest 475 547 36,000  Level Atlanta Center
10:39PM 36.0956 -82.9928 339° North 475 547 36,000  Level Atlanta Center
10:41PM 36.3631 -83.1272 338° Northwest 476 548 36,000  Level Indianapolis Center
10:42PM 36.4858 -83.1881 338° Northwest 471 542 36,000  Level Indianapolis Center
10:43PM 36.6111 -83.2511 338° Northwest 478 550 36,000  Level Indianapolis Center
10:44PM 36.7339 -83.3131 338° Northwest 473 544 36,000  Level Indianapolis Center
10:45PM 36.8572 -83.3758 338° Northwest 473 544 36,000  Level Indianapolis Center
10:46PM 36.9806 -83.4378 338° Northwest 472 543 36,000  Level Indianapolis Center
10:47PM 37.1036 -83.5008 338° Northwest 471 542 36,000  Level Indianapolis Center
10:48PM 37.2272 -83.5644 338° Northwest 477 549 36,000  Level Indianapolis Center
10:49PM 37.3500 -83.6269 338° Northwest 474 545 36,000  Level Indianapolis Center
10:50PM 37.4731 -83.6919 337° Northwest 475 547 36,000  Level Indianapolis Center
10:51PM 37.5969 -83.7561 338° Northwest 478 550 36,000  Level Indianapolis Center
10:52PM 37.7164 -83.8250 335° Northwest 472 543 36,000  Level Indianapolis Center
10:53PM 37.8342 -83.9019 333° Northwest 474 545 36,000  Level Indianapolis Center
10:54PM 37.9711 -83.9908 333° Northwest 472 543 36,000  Level Indianapolis Center
10:55PM 38.0878 -84.0681 332° Northwest 472 543 36,000  Level Indianapolis Center
10:56PM 38.2078 -84.1414 334° Northwest 476 548 36,000  Level Indianapolis Center
10:57PM 38.3242 -84.2189 332° Northwest 471 542 36,000  Level Indianapolis Center
10:58PM 38.4425 -84.2956 333° Northwest 474 545 36,000  Level Indianapolis Center
10:59PM 38.5594 -84.3708 333° Northwest 471 542 36,000  Level Indianapolis Center
11:00PM 38.6828 -84.4519 333° Northwest 474 545 36,000  Level Indianapolis Center
11:01PM 38.8006 -84.5311 332° Northwest 474 545 36,000  Level Indianapolis Center
11:02PM 38.9189 -84.6078 333° Northwest 471 542 36,000  Level Indianapolis Center
11:04PM 39.0386 -84.6883 332° Northwest 479 551 36,000  Level Indianapolis Center
11:05PM 39.1575 -84.7672 333° Northwest 475 547 36,000  Level Indianapolis Center
11:06PM 39.2756 -84.8453 333° Northwest 472 543 36,000  Level Indianapolis Center
11:07PM 39.3964 -84.9269 332° Northwest 476 548 36,000  Level Indianapolis Center
11:08PM 39.5131 -85.0056 333° Northwest 474 545 36,000  Level Indianapolis Center
11:09PM 39.6294 -85.0847 332° Northwest 475 547 36,000  Level Indianapolis Center
11:10PM 39.7475 -85.1639 333° Northwest 477 549 36,000  Level Indianapolis Center
11:11PM 39.8622 -85.2428 332° Northwest 474 545 36,000  Level Indianapolis Center
11:12PM 39.9781 -85.3222 332° Northwest 474 545 36,000  Level Indianapolis Center
11:13PM 40.0942 -85.4019 332° Northwest 476 548 36,000  Level Indianapolis Center
11:14PM 40.2100 -85.4806 333° Northwest 476 548 36,000  Level Chicago Center
11:15PM 40.3458 -85.5817 330° Northwest 472 543 36,000  Level Chicago Center
11:16PM 40.4386 -85.7008 316° Northwest 471 542 36,000  Level Chicago Center
11:17PM 40.5311 -85.8236 315° West 474 545 36,000 -600 Level Chicago Center
11:18PM 40.6222 -85.9444 315° West 470 541 34,800 -1,320 Descending Chicago Center
11:19PM 40.7061 -86.0578 314° West 466 536 33,400 -1,980 Descending Chicago Center
11:20PM 40.7958 -86.1775 315° West 461 531 30,800 -3,000 Descending Chicago Center
11:21PM 40.9019 -86.3208 314° West 457 526 27,400 -2,940 Descending Chicago Center
11:22PM 40.9869 -86.4356 314° West 444 511 24,900 -2,460 Descending Chicago Center
11:23PM 41.0667 -86.5428 315° West 417 480 22,500 -2,220 Descending Chicago Center
11:24PM 41.1453 -86.6500 314° West 406 467 20,500 -2,100 Descending Chicago Center
11:25PM 41.2278 -86.7617 315° West 427 491 18,300 -2,340 Descending Chicago Center
11:26PM 41.3083 -86.8728 314° West 424 488 15,800 -2,460 Descending Chicago Center
11:27PM 41.3867 -86.9797 314° West 410 472 13,300 -2,220 Descending Chicago Center
11:28PM 41.4606 -87.0808 314° West 389 448 11,400 -1,200 Descending Chicago Center
11:29PM 41.5436 -87.2017 313° West 372 428 10,900 -300 Descending Chicago Center
11:30PM 41.6108 -87.3086 310° West 376 433 10,900  Level Chicago Center
11:31PM 41.6761 -87.4131 310° West 371 427 10,900 -300 Level Chicago Center
11:32PM 41.7400 -87.5114 311° West 358 412 10,400 -840 Descending Chicago Center
11:33PM 41.7931 -87.5947 311° West 302 348 9,300 -1,140 Descending Chicago Center
11:35PM 41.8947 -87.7781 323° Northwest  Level FlightAware Approximate
11:42PM 41.9667 -87.9000 304° West  Level FlightAware Approximate
11:43PM 41.9817 -87.9067 304° West  Level Estimated
11:44PM 41.9817 -87.9067 304° West  Level Estimated
11:45PM 41.9817 -87.9067 304° West  Level Estimated
11:46PM 41.9817 -87.9067 304° West  Level Estimated
11:47PM 41.9817 -87.9067 304° West  Level Estimated
11:48PM 41.9817 -87.9067 304° West  Level Estimated
11:49PM 41.9817 -87.9067 304° West  Level Estimated
11:50PM 41.9817 -87.9067 304° West  Level Estimated
11:51PM 41.9817 -87.9067 304° West  Level Estimated
11:52PM 41.9817 -87.9067 304° West  Level Estimated
11:53PM 41.9817 -87.9067 304° West  Level Estimated
11:54PM 41.9817 -87.9067 304° West  Level Estimated
11:55PM 41.9817 -87.9067 304° West  Level Estimated
11:56PM 41.9817 -87.9067 304° West  Level Estimated